createdAt,value
2022-10-23T00:01:27.388Z,15.30
2022-10-23T00:04:30.325Z,15.20
2022-10-23T00:07:33.608Z,15.20
2022-10-23T00:10:41.384Z,15.10
2022-10-23T00:13:44.704Z,15.10
2022-10-23T00:16:47.612Z,15.00
2022-10-23T00:19:50.731Z,15.00
2022-10-23T00:22:53.625Z,15.00
2022-10-23T00:25:58.178Z,14.90
2022-10-23T00:29:01.263Z,14.90
2022-10-23T00:32:04.287Z,14.90
2022-10-23T00:35:08.206Z,14.90
2022-10-23T00:38:12.173Z,14.90
2022-10-23T00:41:20.277Z,14.90
2022-10-23T00:45:00.779Z,14.80
2022-10-23T00:48:04.511Z,14.80
2022-10-23T00:51:07.427Z,14.70
2022-10-23T00:54:23.614Z,14.70
2022-10-23T01:00:45.074Z,14.60
2022-10-23T01:03:48.502Z,14.60
2022-10-23T01:06:59.321Z,14.50
2022-10-23T01:10:10.705Z,14.50
2022-10-23T01:13:20.060Z,14.50
2022-10-23T01:16:28.050Z,14.50
2022-10-23T01:19:45.281Z,14.50
2022-10-23T01:23:23.343Z,14.40
2022-10-23T01:26:36.906Z,14.40
2022-10-23T01:29:47.001Z,14.40
2022-10-23T01:32:53.515Z,14.40
2022-10-23T01:36:02.165Z,14.30
2022-10-23T01:39:09.169Z,14.30
2022-10-23T01:42:16.680Z,14.30
2022-10-23T01:45:26.841Z,14.20
2022-10-23T01:48:32.196Z,14.20
2022-10-23T01:51:37.728Z,14.20
2022-10-23T01:54:43.368Z,14.00
2022-10-23T01:57:48.233Z,14.10
2022-10-23T02:00:55.550Z,14.10
2022-10-23T02:04:01.193Z,14.00
2022-10-23T02:07:04.259Z,14.00
2022-10-23T02:10:09.096Z,14.00
2022-10-23T02:13:17.123Z,14.00
2022-10-23T02:16:29.642Z,14.00
2022-10-23T02:19:39.723Z,13.90
2022-10-23T02:22:50.121Z,13.90
2022-10-23T02:25:56.326Z,13.90
2022-10-23T02:32:16.598Z,13.80
2022-10-23T02:35:21.993Z,13.80
2022-10-23T02:38:30.578Z,13.80
2022-10-23T02:41:45.236Z,13.80
2022-10-23T02:45:00.282Z,13.80
2022-10-23T02:48:12.592Z,13.70
2022-10-23T02:51:22.309Z,13.70
2022-10-23T02:54:36.086Z,13.70
2022-10-23T02:57:43.936Z,13.70
2022-10-23T03:00:52.525Z,13.60
2022-10-23T03:04:00.330Z,13.50
2022-10-23T03:07:03.314Z,13.50
2022-10-23T03:10:07.204Z,13.50
2022-10-23T03:13:11.426Z,13.50
2022-10-23T03:16:14.345Z,13.50
2022-10-23T03:19:18.794Z,13.50
2022-10-23T03:22:21.719Z,13.50
2022-10-23T03:25:24.631Z,13.50
2022-10-23T03:28:27.499Z,13.40
2022-10-23T03:31:30.418Z,13.50
2022-10-23T03:34:34.825Z,13.40
2022-10-23T03:37:37.733Z,13.40
2022-10-23T03:40:40.618Z,13.40
2022-10-23T03:43:43.487Z,13.40
2022-10-23T03:46:46.396Z,13.30
2022-10-23T03:49:50.631Z,13.30
2022-10-23T03:52:53.531Z,13.30
2022-10-23T03:55:56.430Z,13.30
2022-10-23T03:58:59.382Z,13.30
2022-10-23T04:02:02.389Z,13.20
2022-10-23T04:05:07.557Z,13.20
2022-10-23T04:08:10.731Z,13.10
2022-10-23T04:11:13.640Z,13.10
2022-10-23T04:14:16.519Z,13.20
2022-10-23T04:17:19.451Z,13.20
2022-10-23T04:20:23.814Z,13.10
2022-10-23T04:23:26.985Z,13.10
2022-10-23T04:26:29.932Z,13.10
2022-10-23T04:29:33.178Z,13.10
2022-10-23T04:32:36.335Z,13.10
2022-10-23T04:35:40.631Z,13.00
2022-10-23T04:38:43.685Z,13.10
2022-10-23T04:41:46.572Z,13.10
2022-10-23T04:44:49.445Z,13.00
2022-10-23T04:47:53.400Z,13.00
2022-10-23T04:50:59.276Z,13.00
2022-10-23T04:54:02.202Z,13.00
2022-10-23T04:57:05.319Z,13.00
2022-10-23T05:00:11.152Z,13.00
2022-10-23T05:03:14.076Z,13.00
2022-10-23T05:06:18.317Z,13.00
2022-10-23T05:09:22.250Z,13.00
2022-10-23T05:12:26.619Z,13.00
2022-10-23T05:15:29.576Z,12.90
2022-10-23T05:18:35.805Z,12.90
2022-10-23T05:21:41.691Z,13.00
2022-10-23T05:24:48.270Z,13.00
2022-10-23T05:27:53.569Z,13.00
2022-10-23T05:30:56.863Z,12.90
2022-10-23T05:34:01.302Z,13.00
2022-10-23T05:37:08.664Z,12.90
2022-10-23T05:40:12.880Z,12.90
2022-10-23T05:43:15.801Z,12.90
2022-10-23T05:46:18.683Z,12.90
2022-10-23T05:49:21.661Z,12.90
2022-10-23T05:52:25.913Z,12.90
2022-10-23T05:55:28.801Z,12.80
2022-10-23T05:58:31.820Z,12.90
2022-10-23T06:01:35.317Z,12.90
2022-10-23T06:04:38.609Z,12.80
2022-10-23T06:07:43.037Z,12.80
2022-10-23T06:10:46.185Z,12.80
2022-10-23T06:13:49.452Z,12.80
2022-10-23T06:16:52.586Z,12.80
2022-10-23T06:20:00.707Z,12.80
2022-10-23T06:23:05.075Z,12.80
2022-10-23T06:26:10.164Z,12.70
2022-10-23T06:29:13.033Z,12.80
2022-10-23T06:32:16.027Z,12.80
2022-10-23T06:35:18.941Z,12.80
2022-10-23T06:38:23.473Z,12.80
2022-10-23T06:41:26.452Z,12.80
2022-10-23T06:44:29.342Z,12.80
2022-10-23T06:47:32.279Z,12.90
2022-10-23T06:50:35.292Z,12.90
2022-10-23T06:53:39.814Z,12.90
2022-10-23T06:56:42.731Z,12.90
2022-10-23T06:59:45.623Z,13.00
2022-10-23T07:02:48.556Z,13.00
2022-10-23T07:05:51.422Z,13.10
2022-10-23T07:08:55.694Z,13.10
2022-10-23T07:11:58.665Z,13.20
2022-10-23T07:15:01.591Z,13.30
2022-10-23T07:18:04.876Z,13.30
2022-10-23T07:21:07.936Z,13.30
2022-10-23T07:24:12.255Z,13.40
2022-10-23T07:27:15.185Z,13.40
2022-10-23T07:30:18.558Z,13.50
2022-10-23T07:33:21.725Z,13.50
2022-10-23T07:36:24.706Z,13.60
2022-10-23T07:39:29.172Z,13.70
2022-10-23T07:42:32.059Z,13.70
2022-10-23T07:45:35.027Z,13.80
2022-10-23T07:48:38.446Z,13.90
2022-10-23T07:51:41.415Z,13.90
2022-10-23T07:54:45.817Z,14.00
2022-10-23T07:57:48.747Z,14.00
2022-10-23T08:00:56.238Z,14.10
2022-10-23T08:03:59.362Z,14.20
2022-10-23T08:07:02.361Z,14.30
2022-10-23T08:10:07.803Z,14.40
2022-10-23T08:13:13.071Z,14.50
2022-10-23T08:16:15.982Z,14.60
2022-10-23T08:19:18.947Z,14.70
2022-10-23T08:22:21.943Z,14.80
2022-10-23T08:25:26.264Z,14.90
2022-10-23T08:28:29.799Z,15.00
2022-10-23T08:31:32.800Z,15.10
2022-10-23T08:34:37.819Z,15.20
2022-10-23T08:37:40.827Z,15.30
2022-10-23T08:40:47.589Z,15.30
2022-10-23T08:43:55.514Z,15.50
2022-10-23T08:47:05.254Z,15.50
2022-10-23T08:50:15.682Z,15.60
2022-10-23T08:53:26.037Z,15.60
2022-10-23T08:56:35.569Z,15.70
2022-10-23T08:59:44.937Z,15.80
2022-10-23T09:02:49.862Z,16.00
2022-10-23T09:06:09.220Z,16.10
2022-10-23T09:09:46.062Z,16.20
2022-10-23T09:12:50.953Z,16.30
2022-10-23T09:16:04.001Z,16.40
2022-10-23T09:19:13.413Z,16.60
2022-10-23T09:22:16.659Z,16.70
2022-10-23T09:25:25.128Z,16.80
2022-10-23T09:28:32.726Z,17.00
2022-10-23T09:31:35.700Z,17.20
2022-10-23T09:34:38.671Z,17.30
2022-10-23T09:37:48.530Z,17.50
2022-10-23T09:40:52.119Z,17.60
2022-10-23T09:44:04.576Z,17.80
2022-10-23T09:47:12.110Z,17.90
2022-10-23T09:50:22.183Z,17.90
2022-10-23T09:53:33.184Z,18.10
2022-10-23T09:56:41.651Z,18.30
2022-10-23T09:59:51.206Z,18.50
2022-10-23T10:03:00.128Z,18.70
2022-10-23T10:09:13.059Z,19.10
2022-10-23T10:12:29.304Z,19.30
2022-10-23T10:15:38.559Z,19.50
2022-10-23T10:18:48.638Z,19.10
2022-10-23T10:22:04.841Z,19.80
2022-10-23T10:25:14.631Z,19.90
2022-10-23T10:28:31.860Z,20.10
2022-10-23T10:31:50.778Z,20.30
2022-10-23T10:35:03.876Z,20.50
2022-10-23T10:38:44.462Z,20.60
2022-10-23T10:41:56.830Z,20.70
2022-10-23T10:45:17.993Z,20.90
2022-10-23T10:48:40.404Z,21.10
2022-10-23T10:51:53.003Z,21.40
2022-10-23T10:55:03.699Z,21.60
2022-10-23T10:58:16.854Z,21.80
2022-10-23T11:01:26.804Z,21.70
2022-10-23T11:04:37.084Z,21.90
2022-10-23T11:07:44.322Z,22.00
2022-10-23T11:10:51.360Z,22.10
2022-10-23T11:13:54.448Z,22.20
2022-10-23T11:17:03.435Z,22.20
2022-10-23T11:20:23.206Z,22.20
2022-10-23T11:23:45.861Z,22.40
2022-10-23T11:27:03.053Z,22.40
2022-10-23T11:30:20.508Z,22.40
2022-10-23T11:34:15.504Z,22.40
2022-10-23T11:37:21.749Z,22.40
2022-10-23T11:40:26.657Z,22.40
2022-10-23T11:43:33.354Z,22.40
2022-10-23T11:46:38.768Z,22.50
2022-10-23T11:49:41.653Z,22.50
2022-10-23T11:53:15.217Z,22.70
2022-10-23T11:56:27.440Z,22.70
2022-10-23T11:59:32.682Z,22.80
2022-10-23T12:02:38.479Z,22.90
2022-10-23T12:05:44.509Z,22.90
2022-10-23T12:08:53.204Z,23.00
2022-10-23T12:12:28.221Z,23.10
2022-10-23T12:15:32.240Z,23.30
2022-10-23T12:18:46.939Z,23.30
2022-10-23T12:21:53.239Z,23.40
2022-10-23T12:25:02.084Z,23.50
2022-10-23T12:28:13.329Z,23.60
2022-10-23T12:31:27.304Z,23.60
2022-10-23T12:34:39.967Z,23.60
2022-10-23T12:37:56.095Z,23.50
2022-10-23T12:41:11.189Z,23.50
2022-10-23T12:44:14.196Z,23.40
2022-10-23T12:47:19.708Z,23.40
2022-10-23T12:50:25.090Z,23.40
2022-10-23T12:53:27.999Z,23.40
2022-10-23T12:56:38.976Z,23.40
2022-10-23T12:59:43.883Z,23.50
2022-10-23T13:02:47.218Z,23.50
2022-10-23T13:05:52.464Z,23.60
2022-10-23T13:08:56.277Z,23.80
2022-10-23T13:12:03.977Z,24.00
2022-10-23T13:15:17.405Z,24.20
2022-10-23T13:18:20.422Z,24.20
2022-10-23T13:21:24.815Z,24.30
2022-10-23T13:24:30.309Z,24.40
2022-10-23T13:27:35.715Z,24.40
2022-10-23T13:30:42.636Z,24.40
2022-10-23T13:33:47.800Z,24.50
2022-10-23T13:36:57.727Z,24.50
2022-10-23T13:40:02.260Z,24.60
2022-10-23T13:43:19.160Z,24.70
2022-10-23T13:46:24.382Z,24.80
2022-10-23T13:49:27.511Z,24.80
2022-10-23T13:52:30.449Z,24.80
2022-10-23T13:55:34.231Z,24.80
2022-10-23T13:58:38.730Z,24.80
2022-10-23T14:01:41.955Z,24.70
2022-10-23T14:04:46.308Z,24.70
2022-10-23T14:07:49.890Z,24.60
2022-10-23T14:10:52.792Z,24.50
2022-10-23T14:13:57.687Z,24.50
2022-10-23T14:17:00.826Z,24.40
2022-10-23T14:20:05.884Z,24.30
2022-10-23T14:23:09.342Z,24.30
2022-10-23T14:26:14.688Z,24.20
2022-10-23T14:29:23.933Z,24.20
2022-10-23T14:32:27.497Z,24.00
2022-10-23T14:35:30.591Z,24.00
2022-10-23T14:38:33.478Z,23.90
2022-10-23T14:41:37.284Z,23.80
2022-10-23T14:44:43.287Z,23.70
2022-10-23T14:47:46.531Z,23.70
2022-10-23T14:50:50.790Z,23.60
2022-10-23T14:53:59.369Z,23.50
2022-10-23T14:57:02.715Z,23.50
2022-10-23T15:00:08.040Z,23.40
2022-10-23T15:03:10.971Z,23.30
2022-10-23T15:06:17.601Z,23.20
2022-10-23T15:09:21.467Z,23.10
2022-10-23T15:12:24.738Z,23.00
2022-10-23T15:15:29.066Z,22.90
2022-10-23T15:18:32.333Z,22.90
2022-10-23T15:21:35.243Z,22.80
2022-10-23T15:24:38.294Z,22.80
2022-10-23T15:27:41.253Z,22.70
2022-10-23T15:30:46.043Z,22.60
2022-10-23T15:33:48.987Z,22.50
2022-10-23T15:36:53.043Z,22.40
2022-10-23T15:40:01.213Z,22.30
2022-10-23T15:43:05.933Z,22.20
2022-10-23T15:46:10.201Z,22.10
2022-10-23T15:49:13.722Z,22.10
2022-10-23T15:52:16.738Z,22.10
2022-10-23T15:55:19.663Z,22.00
2022-10-23T15:58:22.549Z,22.00
2022-10-23T16:01:27.212Z,21.90
2022-10-23T16:04:30.727Z,21.80
2022-10-23T16:07:33.668Z,21.70
2022-10-23T16:10:40.786Z,21.60
2022-10-23T16:13:44.632Z,21.60
2022-10-23T16:16:48.884Z,21.50
2022-10-23T16:19:51.773Z,21.50
2022-10-23T16:22:55.014Z,21.40
2022-10-23T16:25:57.926Z,21.40
2022-10-23T16:29:02.914Z,21.30
2022-10-23T16:32:07.297Z,21.30
2022-10-23T16:35:12.994Z,21.20
2022-10-23T16:38:16.132Z,21.20
2022-10-23T16:41:19.151Z,21.20
2022-10-23T16:44:22.029Z,21.10
2022-10-23T16:47:27.899Z,21.00
2022-10-23T16:50:30.821Z,20.90
2022-10-23T16:53:34.226Z,20.80
2022-10-23T16:56:37.334Z,20.80
2022-10-23T16:59:40.217Z,20.70
2022-10-23T17:02:44.792Z,20.50
2022-10-23T17:05:47.908Z,20.30
2022-10-23T17:08:51.253Z,20.20
2022-10-23T17:11:54.747Z,20.30
2022-10-23T17:14:57.761Z,20.40
2022-10-23T17:18:02.039Z,20.40
2022-10-23T17:21:05.535Z,20.20
2022-10-23T17:24:09.000Z,20.00
2022-10-23T17:27:11.940Z,20.10
2022-10-23T17:30:15.015Z,20.00
2022-10-23T17:33:19.786Z,20.00
2022-10-23T17:36:23.327Z,20.00
2022-10-23T17:39:28.701Z,20.00
2022-10-23T17:42:31.596Z,19.70
2022-10-23T17:45:36.509Z,19.60
2022-10-23T17:48:41.866Z,19.60
2022-10-23T17:51:44.750Z,19.60
2022-10-23T17:54:47.628Z,19.60
2022-10-23T17:57:50.495Z,19.60
2022-10-23T18:00:53.574Z,19.50
2022-10-23T18:04:01.339Z,19.40
2022-10-23T18:07:04.237Z,19.30
2022-10-23T18:10:07.850Z,19.30
2022-10-23T18:13:10.801Z,19.40
2022-10-23T18:16:14.605Z,19.10
2022-10-23T18:19:19.285Z,19.00
2022-10-23T18:22:22.162Z,19.00
2022-10-23T18:25:25.127Z,19.00
2022-10-23T18:28:29.408Z,19.10
2022-10-23T18:31:32.439Z,19.00
2022-10-23T18:34:36.848Z,19.00
2022-10-23T18:37:41.526Z,19.00
2022-10-23T18:40:45.314Z,19.00
2022-10-23T18:43:48.272Z,19.00
2022-10-23T18:46:52.163Z,19.10
2022-10-23T18:49:56.430Z,19.20
2022-10-23T18:52:59.337Z,19.20
2022-10-23T18:56:02.241Z,19.20
2022-10-23T18:59:07.505Z,19.20
2022-10-23T19:02:11.715Z,19.20
2022-10-23T19:05:16.088Z,19.20
2022-10-23T19:08:19.165Z,19.10
2022-10-23T19:11:23.925Z,19.10
2022-10-23T19:14:28.664Z,19.10
2022-10-23T19:17:33.690Z,19.00
2022-10-23T19:20:38.931Z,18.90
2022-10-23T19:23:43.736Z,18.90
2022-10-23T19:26:46.720Z,18.90
2022-10-23T19:29:51.232Z,18.80
2022-10-23T19:32:54.725Z,18.80
2022-10-23T19:36:02.291Z,18.80
2022-10-23T19:39:07.800Z,18.80
2022-10-23T19:42:10.676Z,18.70
2022-10-23T19:45:15.957Z,18.70
2022-10-23T19:48:18.867Z,18.60
2022-10-23T19:51:23.134Z,18.60
2022-10-23T19:54:26.085Z,18.60
2022-10-23T19:57:30.381Z,18.70
2022-10-23T20:00:33.295Z,18.70
2022-10-23T20:03:36.192Z,18.60
2022-10-23T20:06:40.498Z,18.60
2022-10-23T20:09:43.541Z,18.60
2022-10-23T20:12:56.369Z,18.70
2022-10-23T20:16:00.316Z,18.60
2022-10-23T20:19:04.122Z,18.60
2022-10-23T20:22:08.453Z,18.50
2022-10-23T20:25:11.323Z,18.60
2022-10-23T20:28:15.245Z,18.60
2022-10-23T20:31:20.556Z,18.60
2022-10-23T20:34:23.448Z,18.60
2022-10-23T20:37:27.899Z,18.50
2022-10-23T20:40:31.362Z,18.40
2022-10-23T20:43:35.182Z,18.30
2022-10-23T20:46:38.141Z,18.20
2022-10-23T20:49:41.093Z,18.20
2022-10-23T20:52:45.565Z,18.20
2022-10-23T20:55:48.453Z,18.20
2022-10-23T20:58:51.841Z,18.20
2022-10-23T21:01:56.380Z,18.20
2022-10-23T21:04:59.545Z,18.10
2022-10-23T21:08:03.813Z,18.00
2022-10-23T21:11:07.958Z,18.10
2022-10-23T21:14:10.915Z,18.10
2022-10-23T21:17:17.050Z,18.10
2022-10-23T21:20:19.974Z,18.10
2022-10-23T21:23:24.286Z,18.20
2022-10-23T21:26:29.505Z,18.30
2022-10-23T21:29:32.613Z,18.40
2022-10-23T21:32:35.481Z,18.50
2022-10-23T21:35:43.249Z,18.50
2022-10-23T21:38:58.466Z,18.50
2022-10-23T21:42:01.681Z,18.50
2022-10-23T21:45:05.259Z,18.50
2022-10-23T21:48:08.134Z,18.50
2022-10-23T21:51:18.093Z,18.50
2022-10-23T21:54:22.327Z,18.40
2022-10-23T21:57:25.266Z,18.30
2022-10-23T22:00:28.310Z,18.40
2022-10-23T22:03:31.198Z,18.40
2022-10-23T22:06:34.220Z,18.40
2022-10-23T22:09:38.451Z,18.30
2022-10-23T22:12:41.644Z,18.40
2022-10-23T22:18:52.316Z,18.40
2022-10-23T22:21:55.301Z,18.40
2022-10-23T22:24:59.872Z,18.40
2022-10-23T22:28:03.093Z,18.30
2022-10-23T22:31:06.245Z,18.20
2022-10-23T22:34:25.090Z,18.30
2022-10-23T22:37:35.276Z,18.30
2022-10-23T22:40:43.046Z,18.50
2022-10-23T22:43:48.609Z,18.50
2022-10-23T22:46:52.013Z,18.50
2022-10-23T22:49:54.859Z,18.60
2022-10-23T22:52:57.740Z,18.60
2022-10-23T22:56:02.181Z,18.60
2022-10-23T22:59:05.745Z,18.60
2022-10-23T23:02:09.134Z,18.60
2022-10-23T23:05:13.240Z,18.60
2022-10-23T23:08:16.348Z,18.60
2022-10-23T23:11:22.723Z,18.60
2022-10-23T23:14:25.800Z,18.50
2022-10-23T23:17:28.974Z,18.50
2022-10-23T23:20:31.913Z,18.50
2022-10-23T23:23:35.021Z,18.50
2022-10-23T23:26:39.268Z,18.40
2022-10-23T23:29:42.202Z,18.40
2022-10-23T23:32:47.924Z,18.50
2022-10-23T23:35:50.798Z,18.50
2022-10-23T23:38:55.173Z,18.60
2022-10-23T23:41:59.593Z,18.60
2022-10-23T23:45:13.554Z,18.70
2022-10-23T23:48:17.345Z,18.80
2022-10-23T23:51:23.465Z,18.80
2022-10-23T23:54:26.417Z,18.80
2022-10-23T23:57:31.055Z,18.80
